Time;durP1;ratioP1;P1;durP2;ratioP2;P2;SDS_P1;SDS_P2;PMS_P1;PMS_P2;Temp;Humidity;BMP_temperature;BMP_pressure;BME280_temperature;BME280_humidity;BME280_pressure;Samples;Min_cycle;Max_cycle;Signal;HPM_P1;HPM_P2
2023/07/15 07:22:27;;;;;;;4.45;3.00;;;;;;;;;;9205573;23;20498;-88
2023/07/15 07:26:30;;;;;;;7.22;3.08;;;;;;;;;;8264540;28;20058;-88
2023/07/15 07:30:32;;;;;;;4.75;2.88;;;;;;;;;;8261859;28;20070;-94
2023/07/15 07:34:35;;;;;;;4.22;2.70;;;;;;;;;;8266387;28;20528;-90
2023/07/15 07:48:32;;;;;;;7.07;2.60;;;;;;;;;;8340283;28;20069;-87
2023/07/15 07:57:55;;;;;;;5.37;2.80;;;;;;;;;;9684906;23;20064;-94
2023/07/15 08:02:00;;;;;;;5.57;2.70;;;;;;;;;;8268761;28;20052;-93
2023/07/15 08:40:03;;;;;;;5.18;2.30;;;;;;;;;;8220077;29;20070;-89
2023/07/15 08:44:06;;;;;;;5.60;2.60;;;;;;;;;;8217653;29;20110;-91
2023/07/15 08:48:10;;;;;;;4.32;2.00;;;;;;;;;;8202064;29;20059;-88
2023/07/15 08:52:14;;;;;;;5.22;2.30;;;;;;;;;;8181257;29;20062;-90
2023/07/15 08:56:23;;;;;;;5.20;2.10;;;;;;;;;;8212059;29;20603;-95
2023/07/15 09:00:29;;;;;;;3.92;2.00;;;;;;;;;;8200928;29;20063;-96
2023/07/15 09:04:35;;;;;;;3.83;2.00;;;;;;;;;;8194981;29;20067;-93
2023/07/15 09:08:42;;;;;;;14.80;2.53;;;;;;;;;;8174151;29;20059;-94
2023/07/15 09:18:03;;;;;;;4.60;2.30;;;;;;;;;;8203679;29;20055;-88
2023/07/15 09:22:12;;;;;;;4.60;2.00;;;;;;;;;;8186952;29;20540;-95
2023/07/15 09:26:31;;;;;;;3.17;2.40;;;;;;;;;;8197476;29;20063;-94
2023/07/15 09:30:49;;;;;;;3.63;2.08;;;;;;;;;;8219388;29;20059;-91
2023/07/15 09:35:15;;;;;;;4.47;2.35;;;;;;;;;;8149543;29;20048;-93
2023/07/15 09:47:53;;;;;;;5.45;2.35;;;;;;;;;;8789061;23;20324;-89
2023/07/15 09:52:01;;;;;;;5.85;2.35;;;;;;;;;;8379951;28;20140;-89
2023/07/15 09:56:14;;;;;;;5.43;2.40;;;;;;;;;;8387527;28;20061;-89
2023/07/15 10:00:32;;;;;;;5.22;2.40;;;;;;;;;;8352671;28;20100;-93
2023/07/15 10:04:40;;;;;;;3.60;2.30;;;;;;;;;;8342420;28;20056;-94
2023/07/15 10:09:00;;;;;;;3.30;2.28;;;;;;;;;;8354418;28;20096;-87
2023/07/15 10:13:12;;;;;;;3.75;2.53;;;;;;;;;;8357522;28;20049;-88
2023/07/15 10:17:43;;;;;;;4.28;2.40;;;;;;;;;;8340795;28;20056;-86
2023/07/15 10:21:50;;;;;;;5.03;2.90;;;;;;;;;;8332779;28;20128;-87
2023/07/15 15:34:54;;;;;;;5.80;3.03;;;;;;;;;;9204926;23;20699;-86
2023/07/15 15:38:57;;;;;;;5.53;3.17;;;;;;;;;;8330045;28;20057;-90
2023/07/15 15:43:00;;;;;;;5.53;3.35;;;;;;;;;;8343213;28;20286;-91
2023/07/15 15:47:03;;;;;;;5.88;3.83;;;;;;;;;;8343107;28;20056;-87
2023/07/15 15:51:08;;;;;;;7.57;4.63;;;;;;;;;;8360719;28;20148;-92
2023/07/15 15:55:11;;;;;;;9.65;4.82;;;;;;;;;;8340451;28;20136;-90
2023/07/15 15:59:13;;;;;;;9.15;4.93;;;;;;;;;;8333995;28;20584;-92
2023/07/15 16:03:16;;;;;;;8.05;4.00;;;;;;;;;;8339596;28;20053;-92
2023/07/15 16:07:21;;;;;;;8.45;4.60;;;;;;;;;;8346062;28;20132;-91
2023/07/15 16:11:25;;;;;;;14.02;5.03;;;;;;;;;;8338431;28;20556;-93
2023/07/15 16:15:28;;;;;;;4.55;3.30;;;;;;;;;;8343288;28;20110;-89
2023/07/15 16:19:30;;;;;;;7.03;2.92;;;;;;;;;;8350526;28;20525;-92
2023/07/15 16:23:35;;;;;;;4.63;3.00;;;;;;;;;;8346586;28;20482;-90
2023/07/15 16:27:38;;;;;;;5.70;3.00;;;;;;;;;;8345220;28;20133;-89
2023/07/15 16:31:41;;;;;;;4.35;2.58;;;;;;;;;;8329735;28;20053;-88
2023/07/15 16:35:47;;;;;;;4.35;2.92;;;;;;;;;;8319254;28;20111;-92
2023/07/15 16:39:55;;;;;;;3.60;2.75;;;;;;;;;;8338887;28;20068;-91
2023/07/15 18:51:11;;;;;;;17.65;10.45;;;;;;;;;;9451934;23;20053;-85
2023/07/15 18:55:16;;;;;;;18.63;11.50;;;;;;;;;;8281387;28;20054;-89
2023/07/15 18:59:19;;;;;;;20.67;12.85;;;;;;;;;;8288227;28;20065;-92
2023/07/15 19:03:21;;;;;;;16.27;10.65;;;;;;;;;;8277860;28;20581;-94
2023/07/15 19:07:27;;;;;;;15.73;9.73;;;;;;;;;;8294504;28;20525;-94
2023/07/15 19:11:30;;;;;;;11.55;8.20;;;;;;;;;;8281255;28;20137;-93
2023/07/15 19:15:33;;;;;;;10.27;7.53;;;;;;;;;;8287993;28;20054;-94
2023/07/15 19:19:36;;;;;;;21.90;12.55;;;;;;;;;;8287820;28;20145;-93
2023/07/15 19:23:45;;;;;;;14.05;9.07;;;;;;;;;;8269836;28;20085;-92
2023/07/15 19:27:49;;;;;;;11.68;8.82;;;;;;;;;;8272656;28;20065;-92
2023/07/15 19:31:52;;;;;;;12.88;7.38;;;;;;;;;;8267724;28;20042;-92
2023/07/15 19:35:58;;;;;;;12.10;8.02;;;;;;;;;;8296997;28;20061;-90
2023/07/15 19:40:04;;;;;;;13.57;8.65;;;;;;;;;;8291967;28;20069;-89
2023/07/15 19:44:12;;;;;;;12.90;8.60;;;;;;;;;;8319779;28;20045;-91
2023/07/15 19:48:20;;;;;;;11.88;9.48;;;;;;;;;;8306833;28;20050;-92
2023/07/15 19:52:25;;;;;;;11.32;9.07;;;;;;;;;;8297986;28;20085;-91
2023/07/15 19:56:32;;;;;;;15.68;8.25;;;;;;;;;;8284765;28;20065;-85
2023/07/15 20:00:38;;;;;;;14.77;8.50;;;;;;;;;;8283556;28;20479;-85
2023/07/15 20:04:43;;;;;;;16.35;9.65;;;;;;;;;;8261272;28;20128;-84
2023/07/15 20:08:48;;;;;;;10.05;7.78;;;;;;;;;;8262270;28;20078;-92
2023/07/15 20:12:57;;;;;;;11.45;8.13;;;;;;;;;;8267775;28;20062;-93
2023/07/15 21:27:27;;;;;;;12.95;8.18;;;;;;;;;;8403851;23;20074;-92
2023/07/15 21:31:31;;;;;;;13.35;8.70;;;;;;;;;;8263705;28;20058;-90
2023/07/15 21:35:35;;;;;;;12.65;8.10;;;;;;;;;;8271569;28;20089;-94
2023/07/15 21:39:43;;;;;;;9.57;7.32;;;;;;;;;;8254796;28;20139;-88
2023/07/15 21:43:51;;;;;;;11.02;7.90;;;;;;;;;;8250026;28;20050;-92
2023/07/15 21:47:57;;;;;;;11.85;7.88;;;;;;;;;;8241924;28;20061;-84
2023/07/15 21:52:01;;;;;;;13.00;8.00;;;;;;;;;;8252398;28;20061;-86
2023/07/15 21:56:06;;;;;;;11.27;7.13;;;;;;;;;;8242871;28;20486;-90
2023/07/15 22:00:18;;;;;;;13.70;7.80;;;;;;;;;;8252523;28;20066;-90
2023/07/15 22:04:22;;;;;;;11.25;7.70;;;;;;;;;;8252034;28;20070;-92
2023/07/15 22:08:28;;;;;;;9.75;7.40;;;;;;;;;;8252965;28;20521;-91
2023/07/15 22:12:34;;;;;;;9.45;8.00;;;;;;;;;;8252069;28;20062;-91
2023/07/15 22:16:43;;;;;;;9.65;7.50;;;;;;;;;;8251938;28;20514;-92
2023/07/15 22:20:47;;;;;;;10.98;7.57;;;;;;;;;;8247006;28;20066;-92
2023/07/15 22:24:55;;;;;;;11.02;7.95;;;;;;;;;;8251829;28;20054;-84
2023/07/15 22:29:01;;;;;;;11.20;8.13;;;;;;;;;;8252919;28;20149;-86
2023/07/15 22:33:06;;;;;;;10.18;7.68;;;;;;;;;;8252262;28;20189;-94
2023/07/15 22:37:12;;;;;;;8.90;7.78;;;;;;;;;;8238497;28;20058;-84
2023/07/15 22:41:16;;;;;;;10.63;7.97;;;;;;;;;;8240480;28;20116;-93
2023/07/15 22:45:22;;;;;;;11.60;7.38;;;;;;;;;;8250577;28;20058;-89
2023/07/15 22:49:26;;;;;;;10.38;7.82;;;;;;;;;;8252236;28;20058;-88
2023/07/15 22:53:32;;;;;;;10.38;6.78;;;;;;;;;;8251221;28;20062;-92
2023/07/15 22:57:38;;;;;;;9.73;7.00;;;;;;;;;;8251913;28;20100;-92
2023/07/15 23:01:42;;;;;;;9.30;7.28;;;;;;;;;;8252220;28;20062;-92
2023/07/15 23:05:53;;;;;;;10.57;7.30;;;;;;;;;;8239642;28;20066;-93
2023/07/15 23:09:58;;;;;;;9.52;7.57;;;;;;;;;;8252152;28;20058;-94
2023/07/15 23:14:04;;;;;;;9.25;7.57;;;;;;;;;;8247392;28;20190;-94
2023/07/15 23:18:10;;;;;;;10.27;7.63;;;;;;;;;;8249080;28;20054;-92
2023/07/15 23:22:17;;;;;;;9.18;7.40;;;;;;;;;;8243992;28;20185;-93
2023/07/15 23:26:21;;;;;;;10.88;7.15;;;;;;;;;;8230626;28;20090;-94
2023/07/15 23:30:27;;;;;;;10.82;7.90;;;;;;;;;;8223210;28;20070;-94
2023/07/15 23:34:33;;;;;;;11.40;8.40;;;;;;;;;;8228553;28;20530;-93
2023/07/15 23:38:39;;;;;;;10.18;8.40;;;;;;;;;;8234451;28;20066;-93
2023/07/15 23:42:45;;;;;;;13.68;8.57;;;;;;;;;;8234671;28;20051;-91
2023/07/15 23:46:50;;;;;;;10.85;8.32;;;;;;;;;;8223453;28;20062;-91
2023/07/15 23:50:56;;;;;;;12.70;8.93;;;;;;;;;;8233928;28;20054;-92
2023/07/15 23:55:05;;;;;;;10.13;7.43;;;;;;;;;;8233886;28;20090;-85
2023/07/15 23:59:09;;;;;;;10.98;8.55;;;;;;;;;;8233878;28;20134;-92
